createdAt,value
2023-04-15T00:01:19.916Z,114.40
2023-04-15T00:03:50.040Z,106.50
2023-04-15T00:06:19.716Z,102.10
2023-04-15T00:08:48.924Z,112.47
2023-04-15T00:11:20.398Z,106.60
2023-04-15T00:13:49.720Z,132.07
2023-04-15T00:16:18.525Z,130.33
2023-04-15T00:18:47.311Z,128.00
2023-04-15T00:21:16.146Z,112.43
2023-04-15T00:23:45.390Z,123.53
2023-04-15T00:26:14.466Z,115.70
2023-04-15T00:28:44.933Z,118.43
2023-04-15T00:31:13.713Z,125.43
2023-04-15T00:33:42.528Z,157.73
2023-04-15T00:36:12.090Z,130.83
2023-04-15T00:38:40.903Z,149.47
2023-04-15T00:41:10.673Z,130.40
2023-04-15T00:43:39.647Z,145.60
2023-04-15T00:46:10.825Z,130.87
2023-04-15T00:48:40.105Z,151.70
2023-04-15T00:51:08.637Z,147.10
2023-04-15T00:53:37.376Z,163.30
2023-04-15T00:56:06.789Z,177.53
2023-04-15T00:58:35.300Z,149.63
2023-04-15T01:01:04.583Z,110.07
2023-04-15T01:03:34.701Z,147.13
2023-04-15T01:06:04.118Z,143.33
2023-04-15T01:08:33.071Z,155.87
2023-04-15T01:11:03.634Z,150.43
2023-04-15T01:13:32.558Z,159.77
2023-04-15T01:16:01.102Z,176.90
2023-04-15T01:18:29.547Z,178.03
2023-04-15T01:20:59.332Z,184.07
2023-04-15T01:23:28.138Z,184.77
2023-04-15T01:25:58.664Z,169.73
2023-04-15T01:28:27.334Z,195.60
2023-04-15T01:31:10.987Z,174.23
2023-04-15T01:33:39.706Z,186.00
2023-04-15T01:36:10.109Z,186.97
2023-04-15T01:38:38.982Z,201.57
2023-04-15T01:41:08.963Z,185.60
2023-04-15T01:43:38.214Z,176.07
2023-04-15T01:46:07.322Z,216.10
2023-04-15T01:48:36.050Z,156.60
2023-04-15T01:51:04.667Z,180.77
2023-04-15T01:53:33.636Z,209.83
2023-04-15T01:56:02.537Z,194.53
2023-04-15T01:58:32.675Z,224.73
2023-04-15T02:01:04.104Z,203.53
2023-04-15T02:03:33.103Z,181.97
2023-04-15T02:06:01.771Z,171.27
2023-04-15T02:08:30.361Z,215.37
2023-04-15T02:10:58.911Z,161.90
2023-04-15T02:13:27.351Z,156.57
2023-04-15T02:15:57.271Z,184.93
2023-04-15T02:18:25.815Z,195.90
2023-04-15T02:20:54.535Z,175.90
2023-04-15T02:23:22.906Z,203.00
2023-04-15T02:25:53.355Z,175.87
2023-04-15T02:28:22.739Z,153.37
2023-04-15T02:30:53.101Z,163.10
2023-04-15T02:33:25.235Z,187.97
2023-04-15T02:35:53.672Z,173.47
2023-04-15T02:38:22.073Z,193.10
2023-04-15T02:40:51.303Z,173.33
2023-04-15T02:43:19.804Z,186.47
2023-04-15T02:45:48.743Z,133.83
2023-04-15T02:48:19.537Z,193.53
2023-04-15T02:50:49.420Z,195.40
2023-04-15T02:53:17.862Z,176.70
2023-04-15T02:55:46.378Z,201.30
2023-04-15T02:58:15.056Z,173.73
2023-04-15T03:00:43.554Z,167.30
2023-04-15T03:03:12.298Z,172.80
2023-04-15T03:05:41.166Z,165.17
2023-04-15T03:08:10.897Z,157.27
2023-04-15T03:10:39.426Z,172.27
2023-04-15T03:13:07.872Z,162.50
2023-04-15T03:15:36.549Z,170.10
2023-04-15T03:18:05.137Z,138.00
2023-04-15T03:20:33.649Z,173.97
2023-04-15T03:23:04.988Z,135.57
2023-04-15T03:25:35.542Z,165.80
2023-04-15T03:28:05.017Z,146.83
2023-04-15T03:30:33.472Z,151.90
2023-04-15T03:33:02.008Z,153.07
2023-04-15T03:35:30.961Z,172.27
2023-04-15T03:37:59.555Z,210.80
2023-04-15T03:40:28.061Z,140.13
2023-04-15T03:42:57.950Z,173.03
2023-04-15T03:45:26.754Z,182.33
2023-04-15T03:47:55.377Z,143.13
2023-04-15T03:50:24.106Z,171.60
2023-04-15T03:52:52.736Z,156.97
2023-04-15T03:55:21.110Z,124.07
2023-04-15T03:57:49.760Z,164.00
2023-04-15T04:00:19.877Z,165.47
2023-04-15T04:02:48.722Z,161.27
2023-04-15T04:05:17.169Z,148.13
2023-04-15T04:07:45.599Z,143.20
2023-04-15T04:10:13.812Z,152.43
2023-04-15T04:12:41.952Z,144.30
2023-04-15T04:15:10.697Z,133.00
2023-04-15T04:17:40.351Z,145.93
2023-04-15T04:20:09.834Z,134.80
2023-04-15T04:22:40.238Z,117.47
2023-04-15T04:25:10.215Z,119.10
2023-04-15T04:27:38.546Z,128.83
2023-04-15T04:30:08.199Z,114.67
2023-04-15T04:32:36.446Z,142.97
2023-04-15T04:35:07.197Z,140.10
2023-04-15T04:37:35.408Z,90.97
2023-04-15T04:40:03.665Z,110.10
2023-04-15T04:42:31.800Z,102.00
2023-04-15T04:45:00.025Z,112.70
2023-04-15T04:47:28.391Z,121.60
2023-04-15T04:49:56.624Z,119.27
2023-04-15T04:52:26.291Z,118.43
2023-04-15T04:54:54.488Z,88.63
2023-04-15T04:57:22.680Z,101.20
2023-04-15T04:59:51.062Z,85.37
2023-04-15T05:02:19.424Z,92.50
2023-04-15T05:04:47.684Z,105.83
2023-04-15T05:07:15.964Z,74.10
2023-04-15T05:09:45.748Z,104.87
2023-04-15T05:12:15.191Z,69.93
2023-04-15T05:14:43.542Z,75.53
2023-04-15T05:17:12.595Z,80.53
2023-04-15T05:19:40.881Z,74.53
2023-04-15T05:22:09.541Z,65.80
2023-04-15T05:24:37.818Z,85.80
2023-04-15T05:27:08.590Z,59.37
2023-04-15T05:29:36.763Z,71.47
2023-04-15T05:32:05.174Z,58.73
2023-04-15T05:34:33.313Z,61.33
2023-04-15T05:37:01.468Z,72.60
2023-04-15T05:39:29.721Z,62.23
2023-04-15T05:41:58.406Z,58.37
2023-04-15T05:44:27.946Z,58.40
2023-04-15T05:46:56.328Z,52.70
2023-04-15T05:49:25.521Z,59.37
2023-04-15T05:51:53.806Z,48.13
2023-04-15T05:54:22.680Z,42.50
2023-04-15T05:56:51.122Z,43.07
2023-04-15T05:59:19.336Z,45.57
2023-04-15T06:01:49.299Z,43.27
2023-04-15T06:04:17.760Z,39.60
2023-04-15T06:06:46.306Z,40.17
2023-04-15T06:09:14.480Z,36.40
2023-04-15T06:11:42.681Z,43.43
2023-04-15T06:14:10.907Z,40.37
2023-04-15T06:16:39.171Z,34.73
2023-04-15T06:19:08.872Z,36.83
2023-04-15T06:21:37.243Z,33.13
2023-04-15T06:24:05.540Z,30.57
2023-04-15T06:26:33.769Z,33.10
2023-04-15T06:29:02.163Z,30.23
2023-04-15T06:31:31.172Z,28.73
2023-04-15T06:33:59.372Z,25.87
2023-04-15T06:36:28.947Z,28.60
2023-04-15T06:38:57.723Z,25.20
2023-04-15T06:41:26.156Z,26.57
2023-04-15T06:43:54.511Z,26.67
2023-04-15T06:46:23.255Z,25.63
2023-04-15T06:48:52.386Z,23.47
2023-04-15T06:51:20.758Z,22.77
2023-04-15T06:53:50.461Z,22.50
2023-04-15T06:56:18.710Z,18.90
2023-04-15T06:58:47.276Z,23.83
2023-04-15T07:01:15.637Z,21.57
2023-04-15T07:03:44.032Z,18.40
2023-04-15T07:06:12.278Z,19.33
2023-04-15T07:08:40.500Z,19.57
2023-04-15T07:11:10.103Z,18.27
2023-04-15T07:13:38.433Z,19.00
2023-04-15T07:16:07.436Z,16.93
2023-04-15T07:18:35.682Z,16.77
2023-04-15T07:21:03.938Z,17.97
2023-04-15T07:23:32.281Z,18.63
2023-04-15T07:26:01.080Z,16.10
2023-04-15T07:28:30.793Z,16.90
2023-04-15T07:30:59.125Z,17.63
2023-04-15T07:33:27.481Z,17.33
2023-04-15T07:35:55.702Z,17.17
2023-04-15T07:38:24.643Z,17.13
2023-04-15T07:40:52.900Z,16.10
2023-04-15T07:43:21.412Z,18.07
2023-04-15T07:45:51.018Z,15.40
2023-04-15T07:48:19.232Z,16.90
2023-04-15T07:50:47.634Z,18.93
2023-04-15T07:53:15.984Z,19.67
2023-04-15T07:55:44.170Z,18.10
2023-04-15T07:58:12.388Z,18.87
2023-04-15T08:00:40.927Z,19.77
2023-04-15T08:03:10.700Z,18.30
2023-04-15T08:05:39.769Z,21.23
2023-04-15T08:08:08.374Z,19.03
2023-04-15T08:10:36.640Z,21.77
2023-04-15T08:13:04.856Z,20.10
2023-04-15T08:15:33.498Z,22.57
2023-04-15T08:18:01.866Z,20.67
2023-04-15T08:20:31.486Z,21.07
2023-04-15T08:22:59.689Z,19.23
2023-04-15T08:25:28.226Z,18.87
2023-04-15T08:27:57.654Z,19.63
2023-04-15T08:30:25.941Z,20.27
2023-04-15T08:32:54.312Z,20.87
2023-04-15T08:35:22.505Z,21.87
2023-04-15T08:37:52.352Z,18.93
2023-04-15T08:40:21.772Z,20.63
2023-04-15T08:42:54.500Z,19.47
2023-04-15T08:45:24.051Z,20.80
2023-04-15T08:47:57.684Z,23.27
2023-04-15T08:50:27.878Z,22.90
2023-04-15T08:53:00.000Z,21.83
2023-04-15T08:55:34.571Z,24.20
2023-04-15T08:58:03.218Z,23.20
2023-04-15T09:00:33.589Z,23.70
2023-04-15T09:03:02.321Z,22.17
2023-04-15T09:05:33.417Z,21.57
2023-04-15T09:08:03.918Z,21.03
2023-04-15T09:10:32.920Z,22.23
2023-04-15T09:13:01.364Z,21.23
2023-04-15T09:15:30.477Z,22.70
2023-04-15T09:17:58.736Z,19.80
2023-04-15T09:20:27.411Z,21.57
2023-04-15T09:22:55.669Z,22.47
2023-04-15T09:25:34.288Z,21.97
2023-04-15T09:28:04.326Z,21.83
2023-04-15T09:30:32.768Z,20.87
2023-04-15T09:33:02.953Z,25.73
2023-04-15T09:35:31.280Z,20.23
2023-04-15T09:38:05.421Z,22.77
2023-04-15T09:40:36.577Z,23.00
2023-04-15T09:43:05.456Z,19.53
2023-04-15T09:45:34.306Z,21.70
2023-04-15T09:48:18.575Z,19.40
2023-04-15T09:50:46.851Z,20.43
2023-04-15T09:53:19.187Z,19.80
2023-04-15T09:55:52.072Z,22.83
2023-04-15T09:58:21.472Z,22.03
2023-04-15T10:00:51.237Z,21.87
2023-04-15T10:03:22.792Z,22.47
2023-04-15T10:05:52.411Z,20.70
2023-04-15T10:08:22.609Z,21.83
2023-04-15T10:10:53.222Z,18.80
2023-04-15T10:13:23.721Z,20.30
2023-04-15T10:15:53.765Z,18.23
2023-04-15T10:18:22.760Z,19.57
2023-04-15T10:20:51.889Z,21.27
2023-04-15T10:23:21.802Z,17.73
2023-04-15T10:25:53.850Z,17.30
2023-04-15T10:28:23.052Z,17.60
2023-04-15T10:30:52.130Z,18.07
2023-04-15T10:33:23.170Z,19.20
2023-04-15T10:35:52.955Z,17.30
2023-04-15T10:38:35.004Z,18.97
2023-04-15T10:41:20.697Z,16.77
2023-04-15T10:43:51.447Z,18.07
2023-04-15T10:46:22.501Z,18.43
2023-04-15T10:48:52.521Z,18.93
2023-04-15T10:51:29.938Z,16.30
2023-04-15T10:53:59.976Z,18.70
2023-04-15T10:56:31.880Z,19.40
2023-04-15T10:59:02.269Z,17.47
2023-04-15T11:02:02.202Z,18.07
2023-04-15T11:04:58.733Z,15.73
2023-04-15T11:07:49.756Z,16.40
2023-04-15T11:10:56.555Z,17.30
2023-04-15T11:13:31.793Z,15.93
2023-04-15T11:16:04.416Z,18.63
2023-04-15T11:18:34.591Z,20.60
2023-04-15T11:21:05.496Z,18.50
2023-04-15T11:23:36.042Z,19.23
2023-04-15T11:26:09.406Z,19.53
2023-04-15T11:28:41.483Z,21.50
2023-04-15T11:31:12.218Z,22.53
2023-04-15T11:33:48.152Z,21.20
2023-04-15T11:36:16.488Z,20.50
2023-04-15T11:38:46.684Z,19.90
2023-04-15T11:41:15.069Z,20.37
2023-04-15T11:43:44.829Z,21.50
2023-04-15T11:46:13.128Z,24.10
2023-04-15T11:48:45.235Z,23.17
2023-04-15T11:51:14.712Z,19.63
2023-04-15T11:53:44.637Z,20.40
2023-04-15T11:56:19.529Z,20.30
2023-04-15T11:58:50.949Z,21.00
2023-04-15T12:01:25.321Z,22.13
2023-04-15T12:03:53.843Z,20.83
2023-04-15T12:06:23.752Z,22.77
2023-04-15T12:09:02.982Z,24.37
2023-04-15T12:11:33.747Z,22.57
2023-04-15T12:14:06.454Z,23.87
2023-04-15T12:16:44.564Z,25.50
2023-04-15T12:19:19.496Z,22.03
2023-04-15T12:21:49.248Z,22.10
2023-04-15T12:24:21.119Z,24.00
2023-04-15T12:26:51.252Z,22.67
2023-04-15T12:29:21.469Z,24.77
2023-04-15T12:31:55.530Z,23.70
2023-04-15T12:34:34.177Z,21.60
2023-04-15T12:37:03.990Z,24.63
2023-04-15T12:39:36.746Z,18.83
2023-04-15T12:42:06.211Z,18.57
2023-04-15T12:44:36.336Z,19.03
2023-04-15T12:47:04.857Z,19.67
2023-04-15T12:49:34.282Z,24.00
2023-04-15T12:52:03.712Z,19.47
2023-04-15T12:54:33.336Z,20.97
2023-04-15T12:57:05.910Z,17.83
2023-04-15T12:59:36.524Z,17.50
2023-04-15T13:02:05.619Z,16.80
2023-04-15T13:04:34.121Z,18.60
2023-04-15T13:07:02.917Z,19.60
2023-04-15T13:09:31.181Z,15.97
2023-04-15T13:11:59.646Z,16.97
2023-04-15T13:14:28.334Z,16.23
2023-04-15T13:16:58.150Z,18.90
2023-04-15T13:19:26.747Z,14.77
2023-04-15T13:21:55.070Z,14.10
2023-04-15T13:24:23.306Z,18.43
2023-04-15T13:26:52.193Z,17.83
2023-04-15T13:29:20.570Z,15.10
2023-04-15T13:31:48.861Z,15.50
2023-04-15T13:34:18.481Z,15.77
2023-04-15T13:36:46.896Z,15.10
2023-04-15T13:39:15.389Z,15.40
2023-04-15T13:41:43.714Z,14.37
2023-04-15T13:44:12.438Z,14.90
2023-04-15T13:46:41.964Z,15.33
2023-04-15T13:49:10.363Z,16.60
2023-04-15T13:51:40.671Z,14.17
2023-04-15T13:54:09.141Z,15.37
2023-04-15T13:56:37.541Z,13.43
2023-04-15T13:59:06.788Z,15.53
2023-04-15T14:01:36.196Z,14.07
2023-04-15T14:04:04.859Z,14.27
2023-04-15T14:06:33.547Z,14.20
2023-04-15T14:09:04.170Z,18.20
2023-04-15T14:11:32.773Z,13.83
2023-04-15T14:14:01.017Z,14.93
2023-04-15T14:16:29.398Z,13.77
2023-04-15T14:18:58.135Z,16.27
2023-04-15T14:21:27.961Z,13.90
2023-04-15T14:23:56.470Z,16.20
2023-04-15T14:26:26.303Z,13.17
2023-04-15T14:28:54.646Z,16.60
2023-04-15T14:31:23.034Z,14.63
2023-04-15T14:33:51.429Z,16.77
2023-04-15T14:36:19.795Z,15.63
2023-04-15T14:38:48.720Z,17.60
2023-04-15T14:41:17.408Z,13.53
2023-04-15T14:43:47.116Z,14.00
2023-04-15T14:46:15.653Z,15.27
2023-04-15T14:48:44.372Z,16.93
2023-04-15T14:51:12.634Z,15.10
2023-04-15T14:53:41.184Z,15.93
2023-04-15T14:56:09.557Z,17.03
2023-04-15T14:58:37.827Z,14.37
2023-04-15T15:01:07.838Z,14.87
2023-04-15T15:03:36.400Z,15.40
2023-04-15T15:06:04.968Z,15.80
2023-04-15T15:08:33.238Z,18.13
2023-04-15T15:11:01.646Z,16.37
2023-04-15T15:13:29.986Z,17.77
2023-04-15T15:15:59.098Z,15.17
2023-04-15T15:18:28.978Z,15.00
2023-04-15T15:20:59.124Z,15.43
2023-04-15T15:23:27.343Z,15.13
2023-04-15T15:25:55.703Z,13.70
2023-04-15T15:28:24.961Z,14.57
2023-04-15T15:30:53.305Z,15.40
2023-04-15T15:33:21.928Z,14.10
2023-04-15T15:35:52.418Z,16.60
2023-04-15T15:38:20.654Z,15.33
2023-04-15T15:40:49.054Z,13.73
2023-04-15T15:43:17.444Z,12.20
2023-04-15T15:45:45.739Z,13.27
2023-04-15T15:48:14.123Z,14.73
2023-04-15T15:50:42.429Z,16.17
2023-04-15T15:53:12.511Z,15.37
2023-04-15T15:55:40.832Z,15.27
2023-04-15T15:58:09.111Z,17.20
2023-04-15T16:00:37.478Z,12.93
2023-04-15T16:03:07.893Z,11.83
2023-04-15T16:05:36.596Z,13.07
2023-04-15T16:08:05.063Z,16.37
2023-04-15T16:10:34.858Z,13.70
2023-04-15T16:13:03.738Z,14.37
2023-04-15T16:15:32.122Z,12.17
2023-04-15T16:18:00.484Z,12.77
2023-04-15T16:20:28.990Z,14.90
2023-04-15T16:22:58.025Z,15.40
2023-04-15T16:25:26.494Z,16.83
2023-04-15T16:28:05.542Z,15.30
2023-04-15T16:30:41.333Z,15.33
2023-04-15T16:33:09.846Z,13.50
2023-04-15T16:35:38.141Z,18.73
2023-04-15T16:38:06.488Z,24.33
2023-04-15T16:40:35.060Z,15.23
2023-04-15T16:43:04.865Z,19.30
2023-04-15T16:45:33.105Z,15.73
2023-04-15T16:48:01.558Z,18.03
2023-04-15T16:50:30.061Z,17.30
2023-04-15T16:52:58.365Z,14.13
2023-04-15T16:55:26.831Z,15.70
2023-04-15T16:58:01.901Z,13.47
2023-04-15T17:00:34.218Z,19.00
2023-04-15T17:03:02.739Z,14.37
2023-04-15T17:05:31.692Z,14.47
2023-04-15T17:08:00.191Z,14.13
2023-04-15T17:10:28.717Z,15.53
2023-04-15T17:12:57.908Z,14.97
2023-04-15T17:15:26.697Z,14.17
2023-04-15T17:17:56.356Z,12.40
2023-04-15T17:20:24.755Z,12.30
2023-04-15T17:22:53.374Z,15.57
2023-04-15T17:25:23.724Z,13.53
2023-04-15T17:27:51.995Z,14.37
2023-04-15T17:30:20.910Z,15.33
2023-04-15T17:32:49.278Z,13.93
2023-04-15T17:35:19.444Z,14.27
2023-04-15T17:37:48.129Z,14.17
2023-04-15T17:40:16.476Z,13.90
2023-04-15T17:42:44.817Z,14.60
2023-04-15T17:45:13.327Z,14.77
2023-04-15T17:47:42.137Z,14.37
2023-04-15T17:50:11.947Z,14.13
2023-04-15T17:52:41.664Z,14.47
2023-04-15T17:55:10.381Z,12.33
2023-04-15T17:57:38.638Z,15.60
2023-04-15T18:00:08.886Z,14.80
2023-04-15T18:02:37.610Z,13.77
2023-04-15T18:05:06.909Z,14.80
2023-04-15T18:07:35.981Z,13.80
2023-04-15T18:10:06.568Z,15.87
2023-04-15T18:12:34.904Z,12.63
2023-04-15T18:15:04.450Z,13.83
2023-04-15T18:17:32.808Z,15.33
2023-04-15T18:20:01.158Z,14.43
2023-04-15T18:22:29.464Z,16.83
2023-04-15T18:24:59.020Z,15.13
2023-04-15T18:27:29.182Z,15.83
2023-04-15T18:29:57.441Z,17.63
2023-04-15T18:32:30.519Z,15.73
2023-04-15T18:35:00.123Z,19.00
2023-04-15T18:37:29.533Z,18.77
2023-04-15T18:39:57.922Z,16.20
2023-04-15T18:42:26.840Z,19.37
2023-04-15T18:44:56.915Z,19.70
2023-04-15T18:47:28.291Z,22.87
2023-04-15T18:49:58.504Z,21.10
2023-04-15T18:52:27.013Z,22.77
2023-04-15T18:54:55.615Z,19.97
2023-04-15T18:57:30.840Z,20.50
2023-04-15T19:00:01.267Z,22.60
2023-04-15T19:02:29.852Z,20.33
2023-04-15T19:04:58.344Z,19.27
2023-04-15T19:07:27.132Z,16.53
2023-04-15T19:09:55.760Z,17.30
2023-04-15T19:12:24.265Z,17.83
2023-04-15T19:14:52.820Z,19.57
2023-04-15T19:17:22.881Z,19.63
2023-04-15T19:19:51.576Z,15.73
2023-04-15T19:22:20.579Z,21.00
2023-04-15T19:24:49.065Z,20.40
2023-04-15T19:27:17.487Z,21.03
2023-04-15T19:29:45.997Z,19.40
2023-04-15T19:32:14.861Z,17.10
2023-04-15T19:34:44.726Z,19.67
2023-04-15T19:37:13.537Z,20.67
2023-04-15T19:39:42.106Z,20.27
2023-04-15T19:42:10.833Z,17.87
2023-04-15T19:44:43.133Z,20.73
2023-04-15T19:47:11.876Z,21.17
2023-04-15T19:49:40.629Z,19.53
2023-04-15T19:52:10.540Z,21.43
2023-04-15T19:54:39.081Z,24.53
2023-04-15T19:57:07.486Z,23.47
2023-04-15T19:59:35.917Z,24.00
2023-04-15T20:02:04.642Z,47.40
2023-04-15T20:04:33.269Z,75.83
2023-04-15T20:07:01.751Z,68.03
2023-04-15T20:09:31.859Z,42.53
2023-04-15T20:12:45.887Z,50.70
2023-04-15T20:14:48.916Z,53.70
2023-04-15T20:17:17.454Z,39.40
2023-04-15T20:19:45.881Z,48.37
2023-04-15T20:22:14.202Z,49.50
2023-04-15T20:24:43.989Z,50.20
2023-04-15T20:27:12.481Z,51.07
2023-04-15T20:29:40.964Z,45.20
2023-04-15T20:32:11.684Z,43.30
2023-04-15T20:34:41.467Z,41.00
2023-04-15T20:37:09.922Z,44.83
2023-04-15T20:39:38.376Z,48.97
2023-04-15T20:42:10.414Z,53.80
2023-04-15T20:44:39.662Z,46.33
2023-04-15T20:47:08.477Z,43.20
2023-04-15T20:49:37.574Z,49.93
2023-04-15T20:52:07.872Z,45.37
2023-04-15T20:54:36.493Z,48.77
2023-04-15T20:57:05.086Z,44.20
2023-04-15T20:59:34.924Z,44.87
2023-04-15T21:02:03.551Z,46.50
2023-04-15T21:04:32.205Z,42.83
2023-04-15T21:07:00.732Z,50.67
2023-04-15T21:09:29.304Z,43.73
2023-04-15T21:12:01.617Z,47.43
2023-04-15T21:14:31.281Z,52.63
2023-04-15T21:17:03.404Z,48.87
2023-04-15T21:19:31.815Z,51.83
2023-04-15T21:22:00.306Z,54.77
2023-04-15T21:24:28.920Z,50.30
2023-04-15T21:26:58.307Z,50.33
2023-04-15T21:29:27.152Z,47.33
2023-04-15T21:31:55.704Z,50.03
2023-04-15T21:34:25.527Z,57.77
2023-04-15T21:36:54.313Z,44.20
2023-04-15T21:39:23.037Z,45.47
2023-04-15T21:41:51.627Z,42.63
2023-04-15T21:44:20.253Z,46.67
2023-04-15T21:46:49.001Z,43.67
2023-04-15T21:49:17.506Z,46.63
2023-04-15T21:51:48.186Z,53.97
2023-04-15T21:54:16.780Z,49.33
2023-04-15T21:56:45.235Z,46.10
2023-04-15T21:59:16.352Z,48.60
2023-04-15T22:01:44.848Z,51.60
2023-04-15T22:04:13.640Z,49.37
2023-04-15T22:06:42.135Z,54.37
2023-04-15T22:09:14.003Z,49.37
2023-04-15T22:11:42.961Z,51.33
2023-04-15T22:14:11.563Z,52.47
2023-04-15T22:16:40.045Z,51.63
2023-04-15T22:19:09.024Z,49.93
2023-04-15T22:21:37.519Z,47.60
2023-04-15T22:24:37.179Z,54.37
2023-04-15T22:26:56.993Z,53.40
2023-04-15T22:29:25.239Z,60.27
2023-04-15T22:31:54.037Z,46.80
2023-04-15T22:34:23.291Z,56.43
2023-04-15T22:36:52.319Z,54.50
2023-04-15T22:39:21.491Z,46.43
2023-04-15T22:41:49.963Z,55.70
2023-04-15T22:44:19.936Z,49.93
2023-04-15T22:46:48.661Z,48.23
2023-04-15T22:49:17.346Z,43.93
2023-04-15T22:51:46.120Z,46.47
2023-04-15T22:54:14.965Z,51.73
2023-04-15T22:56:43.785Z,46.70
2023-04-15T22:59:12.498Z,45.17
2023-04-15T23:01:42.710Z,48.23
2023-04-15T23:04:25.725Z,44.67
2023-04-15T23:06:55.264Z,50.57
2023-04-15T23:09:24.639Z,63.27
2023-04-15T23:11:53.113Z,48.20
2023-04-15T23:14:21.554Z,51.53
2023-04-15T23:16:51.704Z,55.77
2023-04-15T23:19:20.170Z,50.40
2023-04-15T23:21:49.055Z,51.43
2023-04-15T23:24:17.807Z,57.33
2023-04-15T23:26:46.606Z,58.67
2023-04-15T23:29:15.160Z,58.97
2023-04-15T23:31:43.655Z,54.40
2023-04-15T23:34:13.692Z,65.37
2023-04-15T23:36:42.331Z,63.67
2023-04-15T23:39:11.018Z,62.07
2023-04-15T23:41:39.911Z,63.03
2023-04-15T23:44:09.809Z,63.80
2023-04-15T23:46:38.824Z,65.47
2023-04-15T23:49:07.357Z,80.27
2023-04-15T23:51:37.195Z,63.17
2023-04-15T23:54:05.580Z,68.77
2023-04-15T23:56:34.072Z,60.47
2023-04-15T23:59:02.577Z,77.73
